Time;durP1;ratioP1;P1;durP2;ratioP2;P2;SDS_P1;SDS_P2;PMS_P1;PMS_P2;Temp;Humidity;BMP_temperature;BMP_pressure;BME280_temperature;BME280_humidity;BME280_pressure;Samples;Min_cycle;Max_cycle;Signal;HPM_P1;HPM_P2
2023/01/03 00:01:35;;;;;;;17.30;8.48;;;4.80;99.90;;;;;;4836602;29;20030;-78
2023/01/03 00:04:01;;;;;;;9.65;6.18;;;4.80;99.90;;;;;;4819609;29;20035;-78
2023/01/03 00:06:28;;;;;;;7.18;6.47;;;4.80;99.90;;;;;;4836325;29;20030;-77
2023/01/03 00:08:55;;;;;;;7.70;6.22;;;4.70;99.90;;;;;;4820032;29;20060;-78
2023/01/03 00:14:15;;;;;;;8.60;7.40;;;4.70;99.90;;;;;;4832529;29;20113;-78
2023/01/03 00:16:40;;;;;;;6.82;6.15;;;4.70;99.90;;;;;;4801976;29;20413;-78
2023/01/03 00:19:12;;;;;;;7.90;6.03;;;4.60;99.90;;;;;;4818261;29;20054;-78
2023/01/03 00:21:39;;;;;;;8.98;6.03;;;4.60;99.90;;;;;;4817969;29;20117;-78
2023/01/03 00:24:06;;;;;;;9.93;6.60;;;4.60;99.90;;;;;;4804427;29;20062;-78
2023/01/03 00:26:33;;;;;;;14.57;6.70;;;4.40;99.90;;;;;;4819954;29;20058;-78
2023/01/03 00:28:59;;;;;;;6.95;6.25;;;4.40;99.90;;;;;;4819922;29;20037;-78
2023/01/03 00:31:25;;;;;;;7.10;6.40;;;4.30;99.90;;;;;;4805192;29;20055;-78
2023/01/03 00:33:51;;;;;;;7.22;6.15;;;4.30;99.90;;;;;;4804170;29;20404;-78
2023/01/03 00:36:18;;;;;;;10.30;8.27;;;4.30;99.90;;;;;;4819845;29;20443;-77
2023/01/03 00:38:44;;;;;;;8.25;6.97;;;4.40;99.90;;;;;;4805899;29;20045;-78
2023/01/03 00:41:15;;;;;;;9.13;6.60;;;4.30;99.90;;;;;;4823474;29;20042;-78
2023/01/03 00:43:43;;;;;;;8.50;7.13;;;4.30;99.90;;;;;;4839671;29;20047;-77
2023/01/03 00:46:11;;;;;;;8.50;7.85;;;4.30;99.90;;;;;;4808036;29;20049;-78
2023/01/03 00:48:37;;;;;;;14.65;8.13;;;4.30;99.90;;;;;;4807986;29;20030;-78
2023/01/03 00:51:08;;;;;;;11.73;8.68;;;4.30;99.90;;;;;;4839546;29;20053;-77
2023/01/03 00:53:36;;;;;;;8.85;7.80;;;4.20;99.90;;;;;;4839633;29;20081;-77
2023/01/03 00:56:09;;;;;;;13.98;7.93;;;4.20;99.90;;;;;;4819647;29;20108;-78
2023/01/03 00:58:35;;;;;;;9.07;8.15;;;4.20;99.90;;;;;;4819971;29;20039;-77
2023/01/03 01:01:12;;;;;;;13.88;9.80;;;4.20;99.90;;;;;;4805010;29;20088;-78
2023/01/03 01:03:40;;;;;;;11.35;10.07;;;4.10;99.90;;;;;;4821156;29;20131;-78
2023/01/03 01:06:38;;;;;;;8.38;7.57;;;4.10;99.90;;;;;;4822193;29;20042;-78
2023/01/03 01:09:06;;;;;;;7.65;6.95;;;4.00;99.90;;;;;;4837927;29;20034;-78
2023/01/03 01:11:32;;;;;;;7.18;6.43;;;4.00;99.90;;;;;;4804850;29;20031;-78
2023/01/03 01:13:59;;;;;;;11.85;8.43;;;4.00;99.90;;;;;;4803693;29;20049;-78
2023/01/03 01:16:30;;;;;;;14.30;9.13;;;4.00;99.90;;;;;;4803087;30;20108;-77
2023/01/03 01:19:00;;;;;;;9.20;8.27;;;3.90;99.90;;;;;;4787089;30;20046;-78
2023/01/03 01:21:28;;;;;;;9.35;7.68;;;3.90;99.90;;;;;;4802782;30;20039;-78
2023/01/03 01:23:55;;;;;;;11.70;7.75;;;3.80;99.90;;;;;;4786483;29;20397;-78
2023/01/03 01:26:22;;;;;;;9.05;7.75;;;3.80;99.90;;;;;;4804880;29;20069;-78
2023/01/03 01:28:50;;;;;;;12.00;7.65;;;3.80;99.90;;;;;;4804532;29;20039;-77
2023/01/03 01:31:19;;;;;;;9.80;7.80;;;3.60;99.90;;;;;;4804427;29;20026;-78
2023/01/03 01:33:45;;;;;;;8.30;7.60;;;3.70;99.90;;;;;;4804597;29;20102;-78
2023/01/03 01:36:17;;;;;;;12.05;7.45;;;3.70;99.90;;;;;;4820016;29;20035;-78
2023/01/03 01:38:44;;;;;;;10.98;9.45;;;3.70;99.90;;;;;;4804480;29;20035;-78
2023/01/03 01:44:36;;;;;;;9.82;7.47;;;3.60;99.90;;;;;;4789529;29;20039;-78
2023/01/03 01:46:46;;;;;;;8.23;7.30;;;3.40;99.90;;;;;;4802942;30;20055;-78
2023/01/03 01:49:18;;;;;;;8.68;7.43;;;3.40;99.90;;;;;;4800928;29;20038;-78
2023/01/03 01:51:44;;;;;;;14.10;8.13;;;3.40;99.90;;;;;;4802249;30;20058;-78
2023/01/03 01:54:11;;;;;;;20.75;8.30;;;3.40;99.90;;;;;;4803529;29;20481;-77
2023/01/03 01:56:49;;;;;;;10.57;6.57;;;3.40;99.90;;;;;;4804286;29;20043;-78
2023/01/03 01:59:15;;;;;;;11.18;9.73;;;3.40;99.90;;;;;;4820474;29;20039;-78
2023/01/03 02:01:44;;;;;;;14.02;9.65;;;3.50;99.90;;;;;;4803988;29;20043;-78
2023/01/03 02:04:16;;;;;;;12.15;10.82;;;3.40;99.90;;;;;;4818781;29;20054;-77
2023/01/03 02:06:42;;;;;;;16.27;10.73;;;3.40;99.90;;;;;;4771381;30;20042;-78
2023/01/03 02:09:09;;;;;;;10.27;8.90;;;3.30;99.90;;;;;;4785750;29;20031;-78
2023/01/03 02:15:06;;;;;;;9.05;7.53;;;3.30;99.90;;;;;;4786057;30;20075;-77
2023/01/03 02:17:47;;;;;;;9.40;7.78;;;3.30;99.90;;;;;;4787125;30;20039;-78
2023/01/03 02:20:19;;;;;;;10.52;9.13;;;3.30;99.90;;;;;;4803121;29;20035;-77
2023/01/03 02:23:16;;;;;;;11.38;9.30;;;3.30;99.90;;;;;;4803656;29;20073;-78
2023/01/03 02:26:02;;;;;;;13.23;9.48;;;3.40;99.90;;;;;;4807557;29;20035;-78
2023/01/03 02:28:51;;;;;;;11.70;10.23;;;3.40;99.90;;;;;;4785614;30;20027;-78
2023/01/03 02:31:26;;;;;;;13.93;10.10;;;3.30;99.90;;;;;;4776060;30;20687;-78
2023/01/03 02:34:20;;;;;;;10.35;8.73;;;3.30;99.90;;;;;;4785502;30;20038;-78
2023/01/03 02:36:51;;;;;;;12.95;10.63;;;3.30;99.90;;;;;;4801688;30;20113;-77
2023/01/03 02:39:26;;;;;;;9.02;8.25;;;3.30;99.90;;;;;;4785389;30;20219;-77
2023/01/03 02:45:05;;;;;;;11.77;10.15;;;3.30;99.90;;;;;;4801623;29;20039;-78
2023/01/03 02:47:49;;;;;;;8.27;7.57;;;3.30;99.90;;;;;;4785324;30;20039;-78
2023/01/03 02:50:15;;;;;;;10.43;9.52;;;3.20;99.90;;;;;;4785285;30;20062;-77
2023/01/03 02:52:43;;;;;;;13.82;10.32;;;3.30;99.90;;;;;;4785174;30;20062;-77
2023/01/03 02:55:18;;;;;;;10.82;9.82;;;3.30;99.90;;;;;;4785495;30;20547;-78
2023/01/03 02:58:09;;;;;;;15.13;10.70;;;3.20;99.90;;;;;;4785293;30;20038;-78
2023/01/03 03:00:41;;;;;;;9.27;7.85;;;3.30;99.90;;;;;;4784761;29;20035;-77
2023/01/03 03:03:13;;;;;;;15.48;9.15;;;3.20;99.90;;;;;;4800764;30;20031;-78
2023/01/03 03:05:55;;;;;;;12.82;8.93;;;3.20;99.90;;;;;;4785296;30;20028;-78
2023/01/03 03:08:21;;;;;;;20.33;8.93;;;3.10;99.90;;;;;;4801175;30;20027;-78
2023/01/03 03:13:58;;;;;;;9.48;8.48;;;3.10;99.90;;;;;;4837495;29;20453;-77
2023/01/03 03:16:48;;;;;;;10.43;8.27;;;3.20;99.90;;;;;;4835375;29;20038;-78
2023/01/03 03:25:42;;;;;;;12.38;9.65;;;3.10;99.90;;;;;;4820772;29;20053;-78
2023/01/03 03:28:34;;;;;;;10.57;9.20;;;3.10;99.90;;;;;;4836211;29;20050;-78
2023/01/03 03:31:14;;;;;;;21.05;10.82;;;3.10;99.90;;;;;;4852579;29;20034;-78
2023/01/03 03:34:28;;;;;;;20.55;11.13;;;3.10;99.90;;;;;;4839239;29;20095;-78
2023/01/03 03:37:19;;;;;;;9.38;8.50;;;3.10;99.90;;;;;;4815453;29;20081;-78
2023/01/03 03:45:38;;;;;;;19.75;12.80;;;3.20;99.90;;;;;;4818764;29;20495;-78
2023/01/03 03:48:07;;;;;;;13.32;9.45;;;3.20;99.90;;;;;;4836789;29;20030;-78
2023/01/03 03:50:47;;;;;;;16.20;10.18;;;3.30;99.90;;;;;;4836813;29;20037;-78
2023/01/03 03:53:17;;;;;;;11.02;10.00;;;3.30;99.90;;;;;;4820522;29;20034;-78
2023/01/03 03:56:06;;;;;;;13.90;12.07;;;3.30;99.90;;;;;;4817581;29;20034;-78
2023/01/03 03:58:43;;;;;;;16.30;9.75;;;3.40;99.90;;;;;;4818621;29;20037;-78
2023/01/03 04:01:14;;;;;;;12.48;9.63;;;3.30;99.90;;;;;;4818277;29;20035;-78
2023/01/03 04:03:42;;;;;;;13.35;11.32;;;3.20;99.90;;;;;;4802148;29;20038;-78
2023/01/03 04:06:24;;;;;;;9.17;8.40;;;3.20;99.90;;;;;;4823595;29;20033;-78
2023/01/03 04:08:50;;;;;;;13.38;10.02;;;3.00;99.90;;;;;;4835967;29;20092;-77
2023/01/03 04:11:16;;;;;;;9.38;8.52;;;3.00;99.90;;;;;;4819963;29;20087;-78
2023/01/03 04:13:42;;;;;;;9.57;8.60;;;2.90;99.90;;;;;;4836411;29;20042;-78
2023/01/03 04:16:08;;;;;;;20.13;9.65;;;3.00;99.90;;;;;;4818721;29;20071;-78
2023/01/03 04:18:34;;;;;;;11.48;8.88;;;3.00;99.90;;;;;;4836239;29;20034;-78
2023/01/03 04:21:00;;;;;;;12.77;10.23;;;3.00;99.90;;;;;;4833491;29;20027;-78
2023/01/03 04:23:26;;;;;;;9.88;7.88;;;3.10;99.90;;;;;;4819910;29;20049;-78
2023/01/03 04:25:52;;;;;;;15.05;9.93;;;3.20;99.90;;;;;;4833150;29;20088;-78
2023/01/03 04:28:18;;;;;;;12.15;10.73;;;3.40;99.90;;;;;;4816842;29;20050;-78
2023/01/03 04:30:45;;;;;;;21.90;10.27;;;3.50;99.90;;;;;;4814934;29;20034;-78
2023/01/03 04:33:12;;;;;;;15.45;9.48;;;3.60;99.90;;;;;;4819938;29;20038;-78
2023/01/03 04:35:37;;;;;;;10.98;9.00;;;3.60;99.90;;;;;;4819262;29;20113;-78
2023/01/03 04:38:04;;;;;;;18.42;13.88;;;3.60;99.90;;;;;;4816864;29;20046;-77
2023/01/03 04:40:33;;;;;;;22.75;15.98;;;3.60;99.90;;;;;;4801606;29;20043;-77
2023/01/03 04:45:46;;;;;;;24.00;14.25;;;3.50;99.90;;;;;;4819239;29;20039;-78
2023/01/03 04:48:12;;;;;;;12.55;10.10;;;3.50;99.90;;;;;;4819695;29;20035;-78
2023/01/03 04:50:38;;;;;;;10.93;8.25;;;3.50;99.90;;;;;;4836159;29;20034;-78
2023/01/03 04:53:04;;;;;;;20.30;11.68;;;3.40;99.90;;;;;;4836097;29;20039;-78
2023/01/03 04:55:30;;;;;;;14.40;9.52;;;3.50;99.90;;;;;;4836201;29;20396;-78
2023/01/03 04:57:56;;;;;;;10.75;8.98;;;3.40;99.90;;;;;;4801972;29;20035;-78
2023/01/03 05:00:22;;;;;;;15.52;12.73;;;3.60;99.90;;;;;;4817842;29;20072;-78
2023/01/03 05:02:48;;;;;;;15.60;11.48;;;3.60;99.90;;;;;;4817755;29;20068;-77
2023/01/03 05:05:14;;;;;;;11.93;10.73;;;3.70;99.90;;;;;;4817840;29;20035;-78
2023/01/03 05:07:40;;;;;;;17.67;9.40;;;3.70;99.90;;;;;;4801647;29;20039;-77
2023/01/03 05:10:06;;;;;;;15.57;12.35;;;3.80;99.90;;;;;;4817814;29;20069;-78
2023/01/03 05:12:32;;;;;;;15.38;13.80;;;3.80;99.90;;;;;;4817701;29;20027;-78
2023/01/03 05:14:58;;;;;;;18.40;16.80;;;3.80;99.90;;;;;;4801303;29;20053;-77
2023/01/03 05:17:24;;;;;;;19.58;16.58;;;3.90;99.90;;;;;;4814954;29;20039;-78
2023/01/03 05:28:03;;;;;;;31.45;13.77;;;4.10;99.90;;;;;;4835926;29;20109;-78
2023/01/03 05:30:29;;;;;;;13.80;12.43;;;4.20;99.90;;;;;;4821764;29;20042;-78
2023/01/03 05:32:56;;;;;;;14.25;12.05;;;4.20;99.90;;;;;;4821330;29;20152;-77
2023/01/03 05:35:22;;;;;;;13.13;11.75;;;4.20;99.90;;;;;;4818794;29;20042;-78
2023/01/03 05:37:51;;;;;;;12.35;9.98;;;4.20;99.90;;;;;;4827293;29;20035;-78
2023/01/03 05:40:17;;;;;;;11.13;9.18;;;4.20;99.90;;;;;;4807207;29;20027;-78
2023/01/03 05:42:43;;;;;;;22.27;10.88;;;4.30;99.90;;;;;;4806857;29;20049;-78
2023/01/03 05:45:09;;;;;;;9.05;8.20;;;4.30;99.90;;;;;;4833591;29;20030;-78
2023/01/03 05:47:35;;;;;;;10.55;9.52;;;4.20;99.90;;;;;;4799436;29;20049;-78
2023/01/03 05:50:00;;;;;;;11.82;8.88;;;4.10;99.90;;;;;;4823565;29;20022;-78
2023/01/03 05:52:27;;;;;;;9.15;6.82;;;4.10;99.90;;;;;;4840971;29;20396;-78
2023/01/03 05:54:53;;;;;;;11.02;9.73;;;4.20;99.90;;;;;;4809999;29;20037;-78
2023/01/03 05:57:19;;;;;;;18.67;11.73;;;4.20;99.90;;;;;;4815029;29;20023;-77
2023/01/03 05:59:44;;;;;;;14.40;10.90;;;4.30;99.90;;;;;;4809479;29;20031;-78
2023/01/03 06:02:10;;;;;;;12.35;9.63;;;4.40;99.90;;;;;;4814757;29;20034;-78
2023/01/03 06:04:36;;;;;;;12.50;10.43;;;4.50;99.90;;;;;;4813809;29;20038;-78
2023/01/03 06:07:02;;;;;;;14.10;10.68;;;4.50;99.90;;;;;;4806760;29;20034;-77
2023/01/03 06:09:28;;;;;;;11.20;9.95;;;4.60;99.90;;;;;;4806859;29;20127;-77
2023/01/03 06:11:54;;;;;;;11.43;10.05;;;4.60;99.90;;;;;;4821418;29;20042;-78
2023/01/03 06:14:20;;;;;;;10.50;9.43;;;4.60;99.90;;;;;;4806450;29;20038;-78
2023/01/03 06:19:30;;;;;;;12.07;10.77;;;4.70;99.90;;;;;;4829027;29;20070;-77
2023/01/03 06:21:56;;;;;;;11.25;9.75;;;4.70;99.90;;;;;;4837766;29;20031;-78
2023/01/03 06:24:22;;;;;;;14.00;9.65;;;4.70;99.90;;;;;;4827226;29;20097;-78
2023/01/03 06:26:48;;;;;;;15.13;10.20;;;4.80;99.90;;;;;;4821193;29;20056;-77
2023/01/03 06:29:14;;;;;;;9.88;8.57;;;4.80;99.90;;;;;;4837846;29;20433;-77
2023/01/03 06:31:40;;;;;;;11.05;8.07;;;4.80;99.90;;;;;;4806331;29;20043;-77
2023/01/03 06:34:07;;;;;;;12.02;10.55;;;4.80;99.90;;;;;;4818617;29;20038;-77
2023/01/03 06:36:33;;;;;;;16.80;8.15;;;4.80;99.90;;;;;;4826281;29;20038;-78
2023/01/03 06:38:59;;;;;;;12.75;7.53;;;4.70;99.90;;;;;;4823705;29;20039;-77
2023/01/03 06:41:25;;;;;;;9.57;7.82;;;4.70;99.90;;;;;;4817155;29;20133;-78
2023/01/03 06:43:53;;;;;;;11.50;7.95;;;4.70;99.90;;;;;;4822224;29;20034;-78
2023/01/03 06:54:36;;;;;;;10.85;9.85;;;4.60;99.90;;;;;;4836560;29;20046;-77
2023/01/03 06:57:02;;;;;;;11.43;9.27;;;4.70;99.90;;;;;;4837172;29;20023;-77
2023/01/03 06:59:28;;;;;;;21.67;10.77;;;4.70;99.90;;;;;;4830282;29;20072;-77
2023/01/03 07:01:54;;;;;;;9.73;8.75;;;4.70;99.90;;;;;;4832597;29;20034;-77
2023/01/03 07:04:21;;;;;;;11.70;10.55;;;4.70;99.90;;;;;;4837057;29;20083;-77
2023/01/03 07:06:48;;;;;;;10.50;8.10;;;4.70;99.90;;;;;;4820379;29;20030;-77
2023/01/03 07:09:14;;;;;;;15.10;10.20;;;4.60;99.90;;;;;;4818455;29;20033;-77
2023/01/03 07:11:41;;;;;;;11.55;10.00;;;4.60;99.90;;;;;;4802576;29;20035;-77
2023/01/03 07:14:09;;;;;;;11.63;10.48;;;4.60;99.90;;;;;;4817389;29;20508;-77
2023/01/03 07:16:46;;;;;;;12.45;8.40;;;4.70;99.90;;;;;;4802532;29;20114;-77
2023/01/03 07:19:17;;;;;;;26.05;21.95;;;4.70;99.90;;;;;;4813181;29;20026;-77
2023/01/03 07:21:44;;;;;;;11.55;10.35;;;4.70;99.90;;;;;;4809069;29;20073;-77
2023/01/03 07:24:13;;;;;;;23.55;14.20;;;4.80;99.90;;;;;;4818609;29;20082;-77
2023/01/03 07:26:39;;;;;;;23.83;18.80;;;4.90;99.90;;;;;;4817432;29;20045;-77
2023/01/03 07:29:08;;;;;;;20.00;17.88;;;4.90;99.90;;;;;;4808063;29;20370;-77
2023/01/03 07:31:37;;;;;;;17.10;14.85;;;5.00;99.90;;;;;;4790604;30;20035;-77
2023/01/03 07:34:03;;;;;;;8.63;7.38;;;5.10;99.90;;;;;;4786565;29;20058;-77
2023/01/03 07:36:29;;;;;;;15.38;13.75;;;5.20;99.90;;;;;;4799151;30;20504;-77
2023/01/03 07:38:55;;;;;;;39.75;27.48;;;5.30;99.90;;;;;;4799635;29;20516;-77
2023/01/03 07:41:21;;;;;;;20.13;15.93;;;5.30;99.90;;;;;;4795079;29;20050;-77
2023/01/03 07:43:48;;;;;;;14.85;13.02;;;5.30;99.90;;;;;;4807367;29;20408;-77
2023/01/03 07:46:15;;;;;;;15.40;12.52;;;5.40;99.90;;;;;;4801970;29;20069;-77
2023/01/03 07:48:42;;;;;;;25.23;17.15;;;5.30;99.90;;;;;;4799271;29;20050;-77
2023/01/03 07:51:10;;;;;;;15.07;11.82;;;5.30;99.90;;;;;;4794927;29;20070;-77
2023/01/03 07:53:38;;;;;;;14.63;12.88;;;5.30;99.90;;;;;;4804374;29;20027;-77
2023/01/03 07:56:11;;;;;;;18.58;12.10;;;5.20;99.90;;;;;;4795666;29;20031;-78
2023/01/03 07:58:37;;;;;;;13.77;11.88;;;5.20;99.90;;;;;;4795483;29;20118;-77
2023/01/03 08:01:19;;;;;;;17.88;13.82;;;5.20;99.90;;;;;;4797497;29;20027;-77
2023/01/03 08:03:45;;;;;;;12.15;9.45;;;5.10;99.90;;;;;;4809508;29;20035;-79
2023/01/03 08:06:13;;;;;;;16.08;11.88;;;5.10;99.90;;;;;;4807701;29;20065;-79
2023/01/03 08:08:39;;;;;;;14.63;12.63;;;5.10;99.90;;;;;;4809299;29;20047;-79
2023/01/03 08:13:50;;;;;;;15.27;11.38;;;5.10;99.90;;;;;;4807218;29;20042;-79
2023/01/03 08:16:18;;;;;;;15.75;14.25;;;5.30;99.90;;;;;;4802696;29;20039;-78
2023/01/03 08:18:44;;;;;;;13.18;11.82;;;5.30;99.90;;;;;;4798711;30;20397;-79
2023/01/03 08:21:13;;;;;;;13.57;12.20;;;5.50;99.90;;;;;;4784030;30;20044;-79
2023/01/03 08:23:40;;;;;;;14.35;12.88;;;5.70;99.90;;;;;;4769141;30;20047;-79
2023/01/03 08:26:11;;;;;;;12.60;11.27;;;5.80;99.90;;;;;;4800247;30;20031;-79
2023/01/03 08:28:38;;;;;;;20.92;13.38;;;6.00;99.90;;;;;;4798836;29;20094;-79
2023/01/03 08:31:10;;;;;;;15.02;11.60;;;6.20;99.90;;;;;;4814276;29;20088;-79
2023/01/03 08:33:51;;;;;;;12.20;9.18;;;6.40;99.90;;;;;;4809525;29;20031;-79
2023/01/03 08:36:18;;;;;;;12.63;9.57;;;6.60;99.90;;;;;;4797925;29;20126;-79
2023/01/03 08:38:56;;;;;;;15.15;8.90;;;6.70;99.90;;;;;;4776230;30;20031;-79
2023/01/03 08:41:25;;;;;;;11.32;8.52;;;6.80;99.90;;;;;;4793626;29;20142;-79
2023/01/03 08:43:51;;;;;;;12.93;7.55;;;6.70;99.90;;;;;;4803222;29;20038;-79
2023/01/03 08:46:18;;;;;;;11.15;9.70;;;6.60;99.90;;;;;;4798416;29;20030;-79
2023/01/03 08:48:44;;;;;;;12.68;9.38;;;6.60;99.90;;;;;;4808062;29;20435;-79
2023/01/03 08:51:10;;;;;;;10.45;8.80;;;6.50;99.90;;;;;;4786741;29;20031;-79
2023/01/03 08:53:36;;;;;;;9.43;8.43;;;6.60;99.90;;;;;;4802342;29;20039;-79
2023/01/03 08:56:02;;;;;;;10.00;8.35;;;6.60;99.90;;;;;;4800639;29;20032;-79
2023/01/03 08:58:28;;;;;;;14.52;8.75;;;6.60;99.90;;;;;;4807075;29;20047;-78
2023/01/03 09:00:54;;;;;;;10.05;7.80;;;6.60;99.90;;;;;;4789499;29;20044;-78
2023/01/03 09:03:19;;;;;;;12.80;9.68;;;6.70;99.90;;;;;;4792813;29;20027;-79
2023/01/03 09:05:45;;;;;;;39.28;26.23;;;7.00;99.90;;;;;;4797151;29;20039;-79
2023/01/03 09:08:11;;;;;;;12.27;11.02;;;6.80;99.90;;;;;;4803874;29;20031;-76
2023/01/03 09:10:38;;;;;;;11.32;8.57;;;6.90;99.90;;;;;;4811731;29;20059;-77
2023/01/03 09:13:05;;;;;;;14.63;11.73;;;7.00;99.90;;;;;;4786606;29;20043;-76
2023/01/03 09:15:31;;;;;;;11.60;9.35;;;7.10;99.90;;;;;;4808118;29;20551;-76
2023/01/03 09:17:57;;;;;;;13.38;10.38;;;7.20;99.90;;;;;;4802612;29;20027;-76
2023/01/03 09:20:22;;;;;;;8.50;7.50;;;7.40;99.90;;;;;;4806538;29;20043;-77
2023/01/03 09:22:48;;;;;;;13.20;6.88;;;7.50;99.90;;;;;;4800404;29;20039;-76
2023/01/03 09:25:14;;;;;;;8.70;6.68;;;7.60;99.90;;;;;;4801764;29;20027;-77
2023/01/03 09:27:45;;;;;;;9.88;7.15;;;7.60;99.90;;;;;;4802429;29;20169;-77
2023/01/03 09:30:13;;;;;;;13.02;7.30;;;7.70;99.90;;;;;;4789113;29;20031;-77
2023/01/03 09:32:39;;;;;;;8.48;5.60;;;7.60;99.90;;;;;;4805466;29;20091;-77
2023/01/03 09:35:05;;;;;;;11.63;6.45;;;7.70;99.90;;;;;;4807282;29;20027;-76
2023/01/03 09:37:31;;;;;;;8.10;6.45;;;7.70;99.90;;;;;;4801798;29;20035;-77
2023/01/03 09:39:57;;;;;;;9.00;5.68;;;7.80;99.90;;;;;;4794888;29;20048;-76
2023/01/03 09:45:25;;;;;;;8.20;5.78;;;7.90;99.90;;;;;;4820323;29;20066;-76
2023/01/03 09:47:52;;;;;;;7.35;5.18;;;7.90;99.90;;;;;;4803854;29;20042;-77
2023/01/03 09:50:26;;;;;;;6.05;5.13;;;7.90;99.90;;;;;;4808414;29;20050;-79
2023/01/03 10:04:34;;;;;;;4.82;4.20;;;8.20;99.90;;;;;;4827040;29;20117;-79
2023/01/03 10:07:18;;;;;;;6.63;5.20;;;8.20;99.90;;;;;;4804619;29;20062;-79
2023/01/03 10:09:59;;;;;;;4.50;4.05;;;8.20;99.90;;;;;;4785489;29;20051;-79
2023/01/03 10:12:41;;;;;;;6.40;4.75;;;8.20;99.90;;;;;;4800839;29;20091;-78
2023/01/03 10:15:22;;;;;;;9.00;5.22;;;8.30;99.90;;;;;;4811404;29;20034;-79
2023/01/03 10:18:07;;;;;;;4.25;3.78;;;8.30;99.90;;;;;;4801672;29;20068;-78
2023/01/03 10:20:42;;;;;;;5.13;3.25;;;8.30;99.90;;;;;;4821098;29;20043;-79
2023/01/03 10:23:10;;;;;;;16.95;5.50;;;8.40;99.90;;;;;;4826446;29;20030;-78
2023/01/03 10:25:38;;;;;;;19.33;4.93;;;8.40;99.90;;;;;;4820824;29;20022;-78
2023/01/03 10:28:21;;;;;;;4.65;3.90;;;8.50;99.90;;;;;;4819302;29;20056;-78
2023/01/03 10:30:52;;;;;;;4.22;3.78;;;8.60;99.90;;;;;;4799800;30;20047;-79
2023/01/03 10:33:39;;;;;;;5.75;4.93;;;8.60;99.90;;;;;;4809381;29;20038;-79
2023/01/03 10:36:06;;;;;;;8.38;4.55;;;8.60;99.90;;;;;;4811729;29;20388;-78
2023/01/03 10:38:32;;;;;;;8.05;3.70;;;8.70;99.90;;;;;;4820948;29;20035;-79
2023/01/03 10:41:00;;;;;;;12.15;5.85;;;8.80;99.90;;;;;;4803799;29;20115;-78
2023/01/03 10:43:40;;;;;;;10.93;6.47;;;8.90;99.90;;;;;;4799672;29;20046;-78
2023/01/03 10:46:17;;;;;;;5.45;4.38;;;8.90;99.90;;;;;;4818830;29;20122;-78
2023/01/03 10:48:51;;;;;;;5.05;4.10;;;8.90;99.90;;;;;;4794970;29;20061;-78
2023/01/03 10:51:23;;;;;;;44.45;25.52;;;8.90;99.90;;;;;;4818510;29;20413;-78
2023/01/03 10:53:51;;;;;;;4.90;3.50;;;9.40;99.90;;;;;;4794220;29;20035;-79
2023/01/03 10:56:18;;;;;;;14.27;9.23;;;10.20;99.90;;;;;;4801964;30;20031;-79
2023/01/03 10:58:44;;;;;;;7.28;6.32;;;10.30;99.90;;;;;;4776146;30;20107;-79
2023/01/03 11:01:21;;;;;;;5.32;4.55;;;10.40;99.90;;;;;;4797091;29;20056;-78
2023/01/03 11:04:14;;;;;;;5.15;3.90;;;10.80;99.90;;;;;;4835820;29;20038;-78
2023/01/03 11:06:58;;;;;;;4.88;2.83;;;11.60;99.90;;;;;;4835749;29;20027;-79
2023/01/03 11:09:41;;;;;;;20.15;12.98;;;11.90;99.90;;;;;;4823272;29;20445;-78
2023/01/03 11:12:35;;;;;;;6.57;4.38;;;12.40;99.90;;;;;;4839304;29;20060;-78
2023/01/03 11:15:24;;;;;;;4.30;2.97;;;12.60;99.90;;;;;;4806302;29;20042;-78
2023/01/03 11:17:54;;;;;;;8.43;6.82;;;12.60;99.90;;;;;;4824529;29;20543;-78
2023/01/03 11:20:24;;;;;;;13.70;6.50;;;11.90;99.90;;;;;;4822149;29;20026;-78
2023/01/03 11:23:00;;;;;;;6.13;5.53;;;11.70;99.90;;;;;;4828526;29;20034;-78
2023/01/03 11:25:37;;;;;;;5.75;3.63;;;11.40;99.90;;;;;;4821210;29;20094;-78
2023/01/03 11:28:03;;;;;;;5.10;2.60;;;11.10;99.90;;;;;;4843709;29;20026;-78
2023/01/03 11:30:42;;;;;;;6.20;4.32;;;10.90;99.90;;;;;;4807255;29;20037;-78
2023/01/03 11:33:44;;;;;;;2.72;2.53;;;11.00;99.90;;;;;;4838257;29;20053;-78
2023/01/03 11:36:23;;;;;;;5.88;3.28;;;11.10;99.90;;;;;;4838583;29;20053;-78
2023/01/03 11:39:17;;;;;;;5.75;3.33;;;10.70;99.90;;;;;;4825960;29;20030;-78
2023/01/03 11:42:05;;;;;;;3.67;2.17;;;10.50;99.90;;;;;;4857165;29;20034;-77
2023/01/03 11:44:37;;;;;;;2.97;2.78;;;10.30;99.90;;;;;;4856604;29;20042;-78
2023/01/03 11:47:41;;;;;;;3.47;3.15;;;10.20;99.90;;;;;;4840996;29;20034;-78
2023/01/03 11:50:24;;;;;;;14.13;7.10;;;10.00;99.90;;;;;;4778685;30;20038;-78
2023/01/03 11:53:00;;;;;;;7.00;3.60;;;9.80;99.90;;;;;;4781691;30;20039;-78
2023/01/03 11:55:52;;;;;;;12.73;3.63;;;9.70;99.90;;;;;;4807650;29;20043;-78
2023/01/03 11:58:36;;;;;;;5.05;4.55;;;9.70;99.90;;;;;;4820244;29;20031;-78
2023/01/03 12:01:23;;;;;;;3.22;3.03;;;9.60;99.90;;;;;;4821700;29;20087;-78
2023/01/03 12:04:04;;;;;;;6.40;4.13;;;9.50;99.90;;;;;;4820900;29;20035;-78
2023/01/03 12:06:47;;;;;;;3.80;2.40;;;9.50;99.90;;;;;;4803940;29;20035;-78
2023/01/03 12:09:22;;;;;;;4.72;3.55;;;9.40;99.90;;;;;;4819923;29;20034;-78
2023/01/03 12:12:20;;;;;;;2.38;2.17;;;9.30;99.90;;;;;;4825650;29;20049;-78
2023/01/03 12:14:53;;;;;;;5.35;3.15;;;9.20;99.90;;;;;;4804149;29;20034;-78
2023/01/03 12:17:37;;;;;;;10.82;2.88;;;9.20;99.90;;;;;;4818480;29;20031;-78
2023/01/03 12:20:10;;;;;;;3.17;1.95;;;9.30;99.90;;;;;;4804583;29;20066;-78
2023/01/03 12:22:40;;;;;;;5.47;3.13;;;9.30;99.90;;;;;;4818395;29;20063;-78
2023/01/03 12:25:40;;;;;;;7.53;3.83;;;9.40;99.90;;;;;;4803161;29;20035;-78
2023/01/03 12:28:13;;;;;;;14.30;8.73;;;9.70;99.90;;;;;;4819474;29;20049;-78
2023/01/03 12:31:05;;;;;;;11.93;7.47;;;10.00;99.90;;;;;;4803069;29;20060;-78
2023/01/03 12:34:08;;;;;;;16.00;6.35;;;10.30;99.90;;;;;;4820752;29;20090;-75
2023/01/03 12:36:42;;;;;;;13.73;8.40;;;10.50;99.90;;;;;;4821476;29;20034;-75
2023/01/03 12:39:30;;;;;;;21.63;11.23;;;10.40;99.90;;;;;;4823532;29;20039;-75
2023/01/03 12:42:08;;;;;;;23.10;13.63;;;10.30;99.90;;;;;;4831400;29;20034;-75
2023/01/03 12:44:45;;;;;;;17.08;10.43;;;10.20;99.90;;;;;;4839575;29;20042;-75
2023/01/03 12:47:26;;;;;;;31.73;14.23;;;10.20;99.90;;;;;;4826977;29;20029;-75
2023/01/03 12:50:04;;;;;;;6.90;4.97;;;10.20;99.90;;;;;;4825921;29;20035;-75
2023/01/03 12:52:32;;;;;;;7.00;3.38;;;10.00;99.90;;;;;;4805188;29;20039;-75
2023/01/03 12:55:02;;;;;;;4.55;3.97;;;10.00;99.90;;;;;;4818618;29;20057;-75
2023/01/03 12:57:44;;;;;;;6.43;4.05;;;10.10;99.90;;;;;;4838949;29;20045;-75
2023/01/03 13:00:18;;;;;;;8.70;4.85;;;10.00;99.90;;;;;;4817848;29;20055;-75
2023/01/03 13:02:56;;;;;;;11.52;9.73;;;9.90;99.90;;;;;;4809510;29;20041;-75
2023/01/03 13:05:31;;;;;;;4.13;3.65;;;10.00;99.90;;;;;;4837207;29;20034;-75
2023/01/03 13:08:10;;;;;;;5.07;4.63;;;10.10;99.90;;;;;;4825454;29;20031;-75
2023/01/03 13:10:41;;;;;;;3.97;3.10;;;10.20;99.90;;;;;;4820935;29;20059;-75
2023/01/03 13:13:14;;;;;;;6.32;3.95;;;10.00;99.90;;;;;;4821285;29;20121;-75
2023/01/03 13:15:40;;;;;;;9.43;4.40;;;9.80;99.90;;;;;;4819149;29;20066;-75
2023/01/03 13:18:34;;;;;;;2.10;1.92;;;9.80;99.90;;;;;;4813527;29;20042;-76
2023/01/03 13:21:00;;;;;;;6.47;4.22;;;9.80;99.90;;;;;;4820097;29;20046;-75
2023/01/03 13:23:41;;;;;;;14.88;11.75;;;9.70;99.90;;;;;;4805193;29;20039;-75
2023/01/03 13:26:16;;;;;;;5.90;3.72;;;9.70;99.90;;;;;;4812540;29;20094;-75
2023/01/03 13:28:42;;;;;;;4.70;3.83;;;9.80;99.90;;;;;;4836967;29;20168;-75
2023/01/03 13:31:15;;;;;;;4.10;3.28;;;9.80;99.90;;;;;;4822652;29;20038;-75
2023/01/03 13:33:54;;;;;;;6.43;5.57;;;9.70;99.90;;;;;;4838719;29;20042;-76
2023/01/03 13:36:22;;;;;;;6.07;4.55;;;9.70;99.90;;;;;;4829543;29;20071;-74
2023/01/03 13:38:48;;;;;;;6.78;6.18;;;9.70;99.90;;;;;;4823018;29;20038;-75
2023/01/03 13:41:38;;;;;;;6.22;3.05;;;9.70;99.90;;;;;;4835938;29;20058;-75
2023/01/03 13:44:17;;;;;;;15.93;12.02;;;9.60;99.90;;;;;;4826774;29;20035;-75
2023/01/03 13:46:43;;;;;;;5.60;4.60;;;9.70;99.90;;;;;;4819950;29;20090;-75
2023/01/03 13:49:18;;;;;;;3.08;2.75;;;9.60;99.90;;;;;;4805884;29;20070;-76
2023/01/03 13:51:46;;;;;;;5.55;2.47;;;9.50;99.90;;;;;;4817715;29;20027;-75
2023/01/03 13:54:11;;;;;;;6.13;3.40;;;9.50;99.90;;;;;;4819814;29;20038;-75
2023/01/03 13:56:43;;;;;;;2.92;2.45;;;9.50;99.90;;;;;;4835206;29;20041;-75
2023/01/03 13:59:18;;;;;;;3.00;2.22;;;9.40;99.90;;;;;;4828903;29;20468;-76
2023/01/03 14:01:59;;;;;;;3.67;3.00;;;9.40;99.90;;;;;;4837653;29;20034;-76
2023/01/03 14:04:34;;;;;;;3.03;2.83;;;9.50;99.90;;;;;;4823668;29;20187;-76
2023/01/03 14:07:21;;;;;;;3.50;2.60;;;9.50;99.90;;;;;;4813510;29;20026;-76
2023/01/03 14:09:59;;;;;;;4.65;4.38;;;9.50;99.90;;;;;;4828388;29;20050;-76
2023/01/03 14:12:37;;;;;;;17.40;9.98;;;9.50;99.90;;;;;;4822111;29;20158;-76
2023/01/03 14:15:13;;;;;;;3.33;2.17;;;9.50;99.90;;;;;;4838114;29;20035;-76
2023/01/03 14:17:45;;;;;;;9.05;5.97;;;9.40;99.90;;;;;;4818776;29;20041;-76
2023/01/03 14:20:23;;;;;;;6.28;4.57;;;9.30;99.90;;;;;;4818974;29;20038;-76